createdAt,value
2018-11-29T00:00:19.007Z,24
2018-11-29T00:02:18.717Z,30
2018-11-29T00:04:19.406Z,31.7
2018-11-29T00:06:19.377Z,21.5
2018-11-29T00:08:19.086Z,27.9
2018-11-29T00:10:19.251Z,30.8
2018-11-29T00:12:18.944Z,24.9
2018-11-29T00:14:18.664Z,26
2018-11-29T00:16:18.678Z,24.7
2018-11-29T00:18:19.463Z,28.8
2018-11-29T00:20:19.201Z,29.2
2018-11-29T00:22:18.904Z,23.4
2018-11-29T00:24:19.613Z,30.3
2018-11-29T00:26:19.546Z,19.1
2018-11-29T00:28:19.253Z,26.5
2018-11-29T00:30:18.979Z,25.3
2018-11-29T00:32:18.681Z,27.7
2018-11-29T00:34:19.392Z,30.9
2018-11-29T00:36:19.583Z,36.2
2018-11-29T00:38:19.283Z,24.1
2018-11-29T00:40:19.469Z,29.2
2018-11-29T00:42:19.171Z,27.3
2018-11-29T00:44:18.901Z,28.2
2018-11-29T00:46:19.380Z,33.5
2018-11-29T00:48:19.073Z,32
2018-11-29T00:50:18.813Z,24.2
2018-11-29T00:52:19.510Z,39.3
2018-11-29T00:54:19.216Z,33.2
2018-11-29T00:56:19.158Z,30.2
2018-11-29T00:58:18.865Z,29.2
2018-11-29T01:00:19.593Z,30.1
2018-11-29T01:02:19.284Z,31.1
2018-11-29T01:04:18.979Z,33.2
2018-11-29T01:06:19.067Z,38
2018-11-29T01:08:18.777Z,23.6
2018-11-29T01:10:18.940Z,30.3
2018-11-29T01:12:19.518Z,30.1
2018-11-29T01:14:19.234Z,31.6
2018-11-29T01:16:18.679Z,28.8
2018-11-29T01:18:19.481Z,29.9
2018-11-29T01:20:19.210Z,28.6
2018-11-29T01:22:18.934Z,39.1
2018-11-29T01:24:18.611Z,28.3
2018-11-29T01:26:18.946Z,24
2018-11-29T01:28:18.619Z,29.9
2018-11-29T01:30:19.306Z,30.5
2018-11-29T01:32:18.984Z,30.9
2018-11-29T01:34:18.661Z,28.7
2018-11-29T01:36:19.476Z,27.6
2018-11-29T01:38:19.156Z,32.6
2018-11-29T01:40:19.278Z,31.5
2018-11-29T01:42:18.957Z,37.3
2018-11-29T01:44:18.631Z,31.6
2018-11-29T01:46:19.138Z,39
2018-11-29T01:48:18.820Z,22.1
2018-11-29T01:50:19.531Z,27.5
2018-11-29T01:52:19.209Z,35
2018-11-29T01:54:18.893Z,29.1
2018-11-29T01:56:18.748Z,27.8
2018-11-29T01:58:19.433Z,34
2018-11-29T02:00:19.153Z,43
2018-11-29T02:02:19.542Z,27.7
2018-11-29T02:04:19.220Z,33.7
2018-11-29T02:06:19.606Z,28.3
2018-11-29T02:08:19.291Z,32
2018-11-29T02:10:19.459Z,30.2
2018-11-29T02:12:19.131Z,27.7
2018-11-29T02:14:18.792Z,30.6
2018-11-29T02:16:19.115Z,26.9
2018-11-29T02:18:18.869Z,28.4
2018-11-29T02:20:19.577Z,36.4
2018-11-29T02:22:19.259Z,31.9
2018-11-29T02:24:18.957Z,29.1
2018-11-29T02:26:19.328Z,30.5
2018-11-29T02:28:18.997Z,44.4
2018-11-29T02:30:18.699Z,33.5
2018-11-29T02:32:19.359Z,28.2
2018-11-29T02:34:19.044Z,29.2
2018-11-29T02:36:19.429Z,32.5
2018-11-29T02:38:19.112Z,31.5
2018-11-29T02:40:19.248Z,30.9
2018-11-29T02:42:18.917Z,42.8
2018-11-29T02:44:19.594Z,29.8
2018-11-29T02:46:18.933Z,29.1
2018-11-29T02:48:19.599Z,23.6
2018-11-29T02:50:19.304Z,32.6
2018-11-29T02:52:18.999Z,36.6
2018-11-29T02:54:18.684Z,28.3
2018-11-29T02:56:19.251Z,30.6
2018-11-29T02:58:18.925Z,28.9
2018-11-29T03:00:19.649Z,33
2018-11-29T03:02:19.329Z,31.3
2018-11-29T03:04:19.024Z,30.7
2018-11-29T03:06:19.365Z,31.4
2018-11-29T03:08:19.047Z,29.1
2018-11-29T03:10:19.179Z,37.1
2018-11-29T03:12:18.854Z,37.2
2018-11-29T03:14:19.535Z,26.8
2018-11-29T03:16:18.961Z,32.6
2018-11-29T03:18:18.720Z,32.8
2018-11-29T03:20:19.441Z,33
2018-11-29T03:22:19.111Z,41.9
2018-11-29T03:24:18.780Z,26.3
2018-11-29T03:26:18.647Z,31.8
2018-11-29T03:28:19.327Z,24.5
2018-11-29T03:30:19.053Z,41.1
2018-11-29T03:32:18.753Z,32.4
2018-11-29T03:34:19.448Z,25.7
2018-11-29T03:36:19.453Z,33.7
2018-11-29T03:38:19.147Z,30.2
2018-11-29T03:40:19.298Z,40.4
2018-11-29T03:42:18.968Z,28.8
2018-11-29T03:44:18.644Z,38.4
2018-11-29T03:46:18.969Z,36.8
2018-11-29T03:48:18.641Z,36.2
2018-11-29T03:50:19.343Z,31.9
2018-11-29T03:52:19.013Z,35.4
2018-11-29T03:54:18.687Z,38.4
2018-11-29T03:56:19.014Z,36
2018-11-29T03:58:18.685Z,31.5
2018-11-29T04:00:19.396Z,40.5
2018-11-29T04:02:19.076Z,36.9
2018-11-29T04:04:18.761Z,25.3
2018-11-29T04:06:19.231Z,31.8
2018-11-29T04:08:18.901Z,26
2018-11-29T04:10:19.032Z,32.5
2018-11-29T04:12:18.704Z,38.4
2018-11-29T04:14:19.407Z,29.1
2018-11-29T04:16:19.357Z,45.1
2018-11-29T04:18:19.098Z,28.5
2018-11-29T04:20:18.821Z,38.3
2018-11-29T04:22:19.489Z,36.2
2018-11-29T04:24:19.153Z,37.6
2018-11-29T04:26:19.013Z,28.9
2018-11-29T04:28:18.682Z,30.4
2018-11-29T04:30:19.392Z,35.4
2018-11-29T04:32:19.058Z,30.9
2018-11-29T04:34:18.730Z,29.4
2018-11-29T04:36:19.132Z,37.8
2018-11-29T04:38:18.794Z,32.2
2018-11-29T04:40:18.894Z,32.6
2018-11-29T04:42:19.563Z,34.4
2018-11-29T04:44:19.248Z,37.4
2018-11-29T04:46:18.626Z,62.6
2018-11-29T04:48:19.311Z,30.5
2018-11-29T04:50:19.038Z,28.4
2018-11-29T04:52:18.711Z,34.7
2018-11-29T04:54:19.377Z,29.2
2018-11-29T04:56:18.782Z,28.8
2018-11-29T04:58:19.461Z,26.8
2018-11-29T05:00:19.194Z,35.4
2018-11-29T05:02:18.870Z,28.6
2018-11-29T05:04:19.542Z,31.8
2018-11-29T05:06:18.952Z,33.1
2018-11-29T05:08:18.615Z,35.1
2018-11-29T05:10:18.739Z,28.2
2018-11-29T05:12:19.414Z,31.5
2018-11-29T05:14:19.079Z,34
2018-11-29T05:16:19.419Z,41.2
2018-11-29T05:18:19.158Z,34.1
2018-11-29T05:20:18.850Z,42.6
2018-11-29T05:22:19.530Z,40
2018-11-29T05:24:19.209Z,29.2
2018-11-29T05:26:19.578Z,33.2
2018-11-29T05:28:19.259Z,27
2018-11-29T05:30:18.992Z,24.1
2018-11-29T05:32:18.681Z,31.7
2018-11-29T05:34:19.359Z,31.9
2018-11-29T05:36:18.754Z,29.4
2018-11-29T05:38:19.450Z,26.4
2018-11-29T05:40:19.578Z,31
2018-11-29T05:42:19.243Z,33.3
2018-11-29T05:44:18.921Z,20
2018-11-29T05:46:18.773Z,26.3
2018-11-29T05:48:19.448Z,25.6
2018-11-29T05:50:19.152Z,26.8
2018-11-29T05:52:18.832Z,36.8
2018-11-29T05:54:19.517Z,32.7
2018-11-29T05:56:19.368Z,23.4
2018-11-29T05:58:19.059Z,22.9
2018-11-29T06:00:18.769Z,28
2018-11-29T06:02:18.755Z,24.4
2018-11-29T06:04:19.432Z,29.8
2018-11-29T06:06:18.814Z,28.1
2018-11-29T06:08:19.490Z,35
2018-11-29T06:10:19.617Z,21.4
2018-11-29T06:12:19.292Z,33.8
2018-11-29T06:14:18.961Z,29.6
2018-11-29T06:16:18.799Z,29.6
2018-11-29T06:18:19.549Z,33.4
2018-11-29T06:20:19.270Z,30
2018-11-29T06:22:18.938Z,35.1
2018-11-29T06:24:19.614Z,42.2
2018-11-29T06:26:18.715Z,32.7
2018-11-29T06:28:19.384Z,27.7
2018-11-29T06:30:19.090Z,38.2
2018-11-29T06:32:18.758Z,33.8
2018-11-29T06:34:19.432Z,36.1
2018-11-29T06:36:18.769Z,44.6
2018-11-29T06:38:19.433Z,34
2018-11-29T06:40:19.573Z,29
2018-11-29T06:42:19.047Z,23.6
2018-11-29T06:44:18.727Z,31.4
2018-11-29T06:46:19.571Z,33.8
2018-11-29T06:48:19.241Z,25.4
2018-11-29T06:50:18.945Z,24.9
2018-11-29T06:52:18.618Z,29.6
2018-11-29T06:54:19.294Z,30.4
2018-11-29T06:56:18.650Z,23.2
2018-11-29T06:58:19.310Z,34.4
2018-11-29T07:00:19.004Z,23.8
2018-11-29T07:02:18.684Z,28.2
2018-11-29T07:04:19.359Z,28.8
2018-11-29T07:06:19.275Z,26.1
2018-11-29T07:08:18.940Z,26.6
2018-11-29T07:10:19.081Z,33.2
2018-11-29T07:12:18.763Z,38.1
2018-11-29T07:14:19.426Z,30.7
2018-11-29T07:16:18.745Z,24.9
2018-11-29T07:18:19.478Z,25.8
2018-11-29T07:20:19.176Z,27.9
2018-11-29T07:22:18.863Z,27.3
2018-11-29T07:24:19.540Z,28
2018-11-29T07:26:18.875Z,24.8
2018-11-29T07:28:19.558Z,28.4
2018-11-29T07:30:19.274Z,21.6
2018-11-29T07:32:18.951Z,31.8
2018-11-29T07:34:18.625Z,27.5
2018-11-29T07:36:19.005Z,27.5
2018-11-29T07:38:18.683Z,24.2
2018-11-29T07:40:18.814Z,27.3
2018-11-29T07:42:19.487Z,23.9
2018-11-29T07:44:19.194Z,29.2
2018-11-29T07:46:19.575Z,20.6
2018-11-29T07:48:19.255Z,34.9
2018-11-29T07:50:18.960Z,24.9
2018-11-29T07:52:18.647Z,33.2
2018-11-29T07:54:19.328Z,22
2018-11-29T07:56:18.708Z,27.9
2018-11-29T07:58:19.382Z,29
2018-11-29T08:00:19.088Z,22.6
2018-11-29T08:02:18.767Z,31.2
2018-11-29T08:04:19.444Z,23
2018-11-29T08:06:19.306Z,24
2018-11-29T08:08:18.992Z,26.4
2018-11-29T08:10:19.134Z,22.6
2018-11-29T08:12:18.807Z,22
2018-11-29T08:14:19.481Z,30.1
2018-11-29T08:16:18.868Z,20.3
2018-11-29T08:18:19.604Z,21.4
2018-11-29T08:20:19.299Z,27.5
2018-11-29T08:22:19.959Z,29
2018-11-29T08:24:18.636Z,27.7
2018-11-29T08:26:18.989Z,26.9
2018-11-29T08:28:18.652Z,20.1
2018-11-29T08:30:19.378Z,25.2
2018-11-29T08:32:19.072Z,23.8
2018-11-29T08:34:18.740Z,33
2018-11-29T08:36:19.601Z,25.5
2018-11-29T08:38:19.267Z,30.3
2018-11-29T08:40:19.409Z,27.9
2018-11-29T08:42:19.091Z,24.7
2018-11-29T08:44:18.767Z,30.1
2018-11-29T08:46:19.094Z,26.7
2018-11-29T08:48:18.756Z,21.2
2018-11-29T08:50:19.480Z,24.8
2018-11-29T08:52:19.154Z,33.8
2018-11-29T08:54:18.828Z,29.4
2018-11-29T08:56:19.550Z,24.1
2018-11-29T08:58:19.237Z,28.1
2018-11-29T09:00:18.927Z,25.4
2018-11-29T09:02:19.613Z,35.5
2018-11-29T09:04:19.288Z,18.6
2018-11-29T09:06:18.650Z,28.2
2018-11-29T09:08:19.340Z,26.7
2018-11-29T09:10:19.486Z,22.7
2018-11-29T09:12:19.159Z,19.9
2018-11-29T09:14:18.837Z,23
2018-11-29T09:16:19.248Z,33.8
2018-11-29T09:18:19.007Z,22.6
2018-11-29T09:20:18.723Z,25.8
2018-11-29T09:22:19.414Z,30.3
2018-11-29T09:24:19.084Z,27.1
2018-11-29T09:26:19.403Z,30.9
2018-11-29T09:28:19.148Z,20.8
2018-11-29T09:30:18.868Z,23.5
2018-11-29T09:32:19.544Z,23.8
2018-11-29T09:34:19.225Z,25
2018-11-29T09:36:19.563Z,20.5
2018-11-29T09:38:19.246Z,22.7
2018-11-29T09:40:19.374Z,18.7
2018-11-29T09:42:19.131Z,27.3
2018-11-29T09:44:18.817Z,21.3
2018-11-29T09:46:18.849Z,24.9
2018-11-29T09:48:19.545Z,34.4
2018-11-29T09:50:19.285Z,24.5
2018-11-29T09:52:18.973Z,15.7
2018-11-29T09:54:18.658Z,25.7
2018-11-29T09:56:19.506Z,20.8
2018-11-29T09:58:19.178Z,27.2
2018-11-29T10:00:18.875Z,19.7
2018-11-29T10:02:19.545Z,19.2
2018-11-29T10:04:19.228Z,21.4
2018-11-29T10:06:19.122Z,26.2
2018-11-29T10:08:18.809Z,20.8
2018-11-29T10:10:18.936Z,21.7
2018-11-29T10:12:19.605Z,22.8
2018-11-29T10:14:19.273Z,18.6
2018-11-29T10:16:19.595Z,24.4
2018-11-29T10:18:19.353Z,29.8
2018-11-29T10:20:19.066Z,23.2
2018-11-29T10:22:18.759Z,24.6
2018-11-29T10:24:19.453Z,20.3
2018-11-29T10:26:19.374Z,21.7
2018-11-29T10:28:19.055Z,37.1
2018-11-29T10:30:18.758Z,22.3
2018-11-29T10:32:19.443Z,21.5
2018-11-29T10:34:19.138Z,23.7
2018-11-29T10:36:19.014Z,18.7
2018-11-29T10:38:18.706Z,25.4
2018-11-29T10:40:18.836Z,33.1
2018-11-29T10:42:19.510Z,20.5
2018-11-29T10:44:19.187Z,24.7
2018-11-29T10:46:19.521Z,21.7
2018-11-29T10:48:19.206Z,18
2018-11-29T10:50:18.902Z,26.5
2018-11-29T10:52:19.582Z,19
2018-11-29T10:54:19.281Z,20.4
2018-11-29T10:56:18.734Z,20.6
2018-11-29T10:58:19.413Z,23.5
2018-11-29T11:00:19.113Z,17.6
2018-11-29T11:02:18.800Z,26.5
2018-11-29T11:04:19.494Z,23.5
2018-11-29T11:06:19.472Z,21.4
2018-11-29T11:08:19.154Z,23.9
2018-11-29T11:10:19.301Z,20.4
2018-11-29T11:12:19.094Z,18.6
2018-11-29T11:14:18.769Z,22.8
2018-11-29T11:16:19.240Z,21.4
2018-11-29T11:18:18.993Z,18.3
2018-11-29T11:20:18.694Z,32.3
2018-11-29T11:22:19.387Z,26.5
2018-11-29T11:24:19.130Z,15
2018-11-29T11:26:19.566Z,24.2
2018-11-29T11:28:19.262Z,20.1
2018-11-29T11:30:19.255Z,18.9
2018-11-29T11:32:19.033Z,17.7
2018-11-29T11:34:18.725Z,26.4
2018-11-29T11:36:19.119Z,18.4
2018-11-29T11:38:18.810Z,20.6
2018-11-29T11:40:18.953Z,24.3
2018-11-29T11:42:18.635Z,21.9
2018-11-29T11:44:19.312Z,26.2
2018-11-29T11:46:19.267Z,20.3
2018-11-29T11:48:18.944Z,26.9
2018-11-29T11:50:18.652Z,29.5
2018-11-29T11:52:19.328Z,24
2018-11-29T11:54:19.022Z,19.1
2018-11-29T11:56:19.476Z,39.8
2018-11-29T11:58:19.153Z,22
2018-11-29T12:00:18.948Z,29.8
2018-11-29T12:02:18.750Z,25.3
2018-11-29T12:04:19.511Z,20.9
2018-11-29T12:06:19.553Z,26.7
2018-11-29T12:08:19.295Z,20.1
2018-11-29T12:10:19.603Z,23
2018-11-29T12:12:19.370Z,24.4
2018-11-29T12:14:19.097Z,20.5
2018-11-29T12:16:18.803Z,22.6
2018-11-29T12:18:19.608Z,25.3
2018-11-29T12:20:19.351Z,22.8
2018-11-29T12:22:19.126Z,23
2018-11-29T12:24:18.859Z,22.8
2018-11-29T12:26:19.527Z,24.8
2018-11-29T12:28:19.277Z,21.7
2018-11-29T12:30:19.041Z,27.2
2018-11-29T12:32:18.771Z,30.3
2018-11-29T12:34:19.516Z,22.6
2018-11-29T12:36:18.696Z,24
2018-11-29T12:38:19.449Z,21
2018-11-29T12:40:18.794Z,24.8
2018-11-29T12:42:19.530Z,29.7
2018-11-29T12:44:19.267Z,27.2
2018-11-29T12:46:19.336Z,26.6
2018-11-29T12:48:19.096Z,32.5
2018-11-29T12:50:18.855Z,18.1
2018-11-29T12:52:19.606Z,17
2018-11-29T12:54:19.352Z,25.8
2018-11-29T12:56:19.446Z,21.2
2018-11-29T12:58:19.199Z,30.6
2018-11-29T13:00:18.992Z,18.2
2018-11-29T13:02:18.740Z,21.3
2018-11-29T13:04:19.478Z,26.9
2018-11-29T13:06:19.661Z,39.1
2018-11-29T13:08:19.391Z,24.7
2018-11-29T13:10:19.642Z,21.1
2018-11-29T13:12:19.383Z,24.9
2018-11-29T13:14:19.365Z,17.2
2018-11-29T13:16:19.154Z,31
2018-11-29T13:18:18.983Z,22.7
2018-11-29T13:20:18.914Z,24.6
2018-11-29T13:22:19.655Z,28.5
2018-11-29T13:24:19.417Z,23.9
2018-11-29T13:26:18.933Z,16.5
2018-11-29T13:28:19.667Z,26.7
2018-11-29T13:30:19.415Z,23.6
2018-11-29T13:32:19.188Z,29.9
2018-11-29T13:34:18.930Z,16.5
2018-11-29T13:36:19.663Z,18.8
2018-11-29T13:38:19.468Z,18
2018-11-29T13:42:19.450Z,20.1
2018-11-29T13:44:19.206Z,19.1
2018-11-29T13:46:18.928Z,26.4
2018-11-29T13:48:19.676Z,23.7
2018-11-29T13:50:19.456Z,19.2
2018-11-29T13:52:19.192Z,25.7
2018-11-29T13:54:18.934Z,18.4
2018-11-29T13:56:18.898Z,19.9
2018-11-29T13:58:19.656Z,15
2018-11-29T14:00:19.404Z,27.1
2018-11-29T14:02:19.149Z,24.5
2018-11-29T14:04:18.897Z,19.2
2018-11-29T14:06:19.590Z,19.5
2018-11-29T14:08:19.369Z,21.1
2018-11-29T14:10:19.608Z,16.9
2018-11-29T14:12:19.277Z,25.6
2018-11-29T14:14:19.033Z,24.8
2018-11-29T14:16:19.065Z,18.3
2018-11-29T14:18:18.889Z,19.8
2018-11-29T14:20:19.655Z,22
2018-11-29T14:22:19.402Z,20
2018-11-29T14:24:19.132Z,27.5
2018-11-29T14:26:19.239Z,19
2018-11-29T14:28:19.009Z,18.8
2018-11-29T14:30:18.827Z,25.8
2018-11-29T14:32:19.545Z,20.5
2018-11-29T14:34:19.301Z,25
2018-11-29T14:36:19.399Z,20.3
2018-11-29T14:38:19.188Z,16
2018-11-29T14:40:19.491Z,17.4
2018-11-29T14:42:19.504Z,19.5
2018-11-29T14:44:19.272Z,17.7
2018-11-29T14:46:18.808Z,15.4
2018-11-29T14:48:19.568Z,19.2
2018-11-29T14:50:19.345Z,15.5
2018-11-29T14:52:19.109Z,14.7
2018-11-29T14:54:18.873Z,16.2
2018-11-29T14:56:19.532Z,24.3
2018-11-29T14:58:20.232Z,24.1
2018-11-29T15:00:19.112Z,19.7
2018-11-29T15:02:18.898Z,21.8
2018-11-29T15:04:19.643Z,18.8
2018-11-29T15:06:19.235Z,24
2018-11-29T15:08:19.021Z,30.6
2018-11-29T15:10:19.269Z,17
2018-11-29T15:12:18.994Z,28.4
2018-11-29T15:14:18.835Z,22.8
2018-11-29T15:16:19.352Z,20.4
2018-11-29T15:18:19.180Z,21.5
2018-11-29T15:20:18.975Z,20.9
2018-11-29T15:22:18.750Z,21.5
2018-11-29T15:24:19.509Z,17.1
2018-11-29T15:26:19.142Z,21.5
2018-11-29T15:28:18.895Z,33.5
2018-11-29T15:30:20.778Z,18.2
2018-11-29T15:32:19.531Z,18.1
2018-11-29T15:34:19.295Z,21
2018-11-29T15:36:18.883Z,10.8
2018-11-29T15:38:19.656Z,24.2
2018-11-29T15:40:18.907Z,16.2
2018-11-29T15:42:19.652Z,13.3
2018-11-29T15:44:19.402Z,18.7
2018-11-29T15:46:18.972Z,17.9
2018-11-29T15:48:18.730Z,17.9
2018-11-29T15:50:19.551Z,16.4
2018-11-29T15:52:19.309Z,22.1
2018-11-29T15:54:19.075Z,21.6
2018-11-29T15:56:19.090Z,24.1
2018-11-29T15:58:18.843Z,16.2
2018-11-29T16:00:19.612Z,25.4
2018-11-29T16:02:19.336Z,22.5
2018-11-29T16:04:19.076Z,18.3
2018-11-29T16:06:19.116Z,23.9
2018-11-29T16:08:18.873Z,19.8
2018-11-29T16:10:19.181Z,21.3
2018-11-29T16:12:18.947Z,15.3
2018-11-29T16:14:18.685Z,16.3
2018-11-29T16:16:19.226Z,23.3
2018-11-29T16:18:19.018Z,17
2018-11-29T16:20:18.754Z,17.3
2018-11-29T16:22:19.497Z,22.1
2018-11-29T16:24:19.269Z,22.6
2018-11-29T16:26:18.765Z,19.7
2018-11-29T16:28:19.515Z,19.5
2018-11-29T16:30:19.313Z,20.3
2018-11-29T16:32:19.334Z,18.7
2018-11-29T16:34:19.100Z,21
2018-11-29T16:36:19.236Z,17.3
2018-11-29T16:38:18.969Z,23.1
2018-11-29T16:40:19.200Z,24.4
2018-11-29T16:42:18.936Z,19.8
2018-11-29T16:44:18.685Z,20.3
2018-11-29T16:46:19.291Z,21.3
2018-11-29T16:48:19.039Z,21.6
2018-11-29T16:50:18.774Z,19.3
2018-11-29T16:52:19.541Z,23.5
2018-11-29T16:54:19.313Z,19.5
2018-11-29T16:56:19.154Z,23.5
2018-11-29T16:58:18.927Z,17
2018-11-29T17:00:18.717Z,18.1
2018-11-29T17:02:19.562Z,19.3
2018-11-29T17:04:19.303Z,28.6
2018-11-29T17:06:18.767Z,15.5
2018-11-29T17:08:19.516Z,18.5
2018-11-29T17:10:18.782Z,18.5
2018-11-29T17:12:19.552Z,21
2018-11-29T17:14:19.300Z,22.3
2018-11-29T17:16:19.358Z,24
2018-11-29T17:18:19.172Z,19.4
2018-11-29T17:20:18.977Z,20.2
2018-11-29T17:22:18.718Z,19.5
2018-11-29T17:24:19.493Z,19.8
2018-11-29T17:26:19.650Z,21.2
2018-11-29T17:28:19.396Z,20.2
2018-11-29T17:30:19.144Z,16.7
2018-11-29T17:32:18.877Z,16.6
2018-11-29T17:34:19.632Z,17.9
2018-11-29T17:36:18.786Z,18.1
2018-11-29T17:38:19.544Z,17.4
2018-11-29T17:40:18.744Z,19.7
2018-11-29T17:42:19.480Z,20.4
2018-11-29T17:44:19.227Z,17.5
2018-11-29T17:46:18.961Z,15.8
2018-11-29T17:48:18.682Z,21.8
2018-11-29T17:50:19.438Z,24.8
2018-11-29T17:52:19.188Z,23.3
2018-11-29T17:54:18.941Z,19.5
2018-11-29T17:56:19.416Z,24.5
2018-11-29T17:58:19.152Z,12.9
2018-11-29T18:00:18.954Z,16.7
2018-11-29T18:02:18.690Z,17.9
2018-11-29T18:04:19.448Z,19.2
2018-11-29T18:06:19.170Z,20.7
2018-11-29T18:08:18.917Z,21.5
2018-11-29T18:10:19.160Z,18.3
2018-11-29T18:12:18.732Z,16.5
2018-11-29T18:14:19.486Z,18.1
2018-11-29T18:16:19.570Z,20.4
2018-11-29T18:18:19.402Z,24.7
2018-11-29T18:20:19.144Z,14
2018-11-29T18:22:18.852Z,21.6
2018-11-29T18:24:19.587Z,18.1
2018-11-29T18:26:19.177Z,10.6
2018-11-29T18:28:18.894Z,16.2
2018-11-29T18:30:19.657Z,17.7
2018-11-29T18:32:19.400Z,16.2
2018-11-29T18:34:19.143Z,20
2018-11-29T18:36:19.655Z,17.2
2018-11-29T18:38:19.408Z,21.3
2018-11-29T18:40:19.663Z,13.1
2018-11-29T18:42:19.412Z,17.3
2018-11-29T18:44:19.213Z,15.4
2018-11-29T18:46:18.932Z,11.3
2018-11-29T18:48:18.709Z,14.8
2018-11-29T18:50:19.456Z,13.5
2018-11-29T18:52:19.199Z,13.8
2018-11-29T18:54:18.928Z,17
2018-11-29T18:56:18.828Z,14
2018-11-29T18:58:19.576Z,19.7
2018-11-29T19:00:19.327Z,18.6
2018-11-29T19:02:19.071Z,13.2
2018-11-29T19:04:18.816Z,15
2018-11-29T19:06:19.299Z,17.1
2018-11-29T19:08:19.041Z,13.5
2018-11-29T19:10:19.340Z,17.1
2018-11-29T19:12:19.095Z,11.4
2018-11-29T19:14:18.867Z,13.7
2018-11-29T19:16:18.898Z,15.5
2018-11-29T19:18:18.755Z,15.5
2018-11-29T19:20:19.528Z,14.2
2018-11-29T19:22:19.280Z,12.5
2018-11-29T19:24:19.033Z,13.1
2018-11-29T19:26:19.387Z,22.2
2018-11-29T19:28:19.152Z,12.1
2018-11-29T19:30:18.948Z,11.4
2018-11-29T19:32:18.701Z,14.3
2018-11-29T19:34:19.450Z,12.9
2018-11-29T19:36:19.550Z,8.2
2018-11-29T19:38:19.296Z,11.3
2018-11-29T19:40:19.563Z,11.6
2018-11-29T19:42:19.281Z,13.7
2018-11-29T19:44:19.040Z,11.2
2018-11-29T19:46:19.180Z,13.2
2018-11-29T19:48:18.906Z,9.6
2018-11-29T19:50:18.713Z,18.5
2018-11-29T19:52:19.469Z,13.1
2018-11-29T19:54:19.249Z,10.7
2018-11-29T19:56:19.633Z,13
2018-11-29T19:58:19.363Z,8.7
2018-11-29T20:00:19.155Z,9.1
2018-11-29T20:02:18.913Z,14.4
2018-11-29T20:04:19.657Z,15.8
2018-11-29T20:06:18.826Z,10.6
2018-11-29T20:08:19.563Z,11.6
2018-11-29T20:10:18.786Z,9.2
2018-11-29T20:12:19.539Z,13.4
2018-11-29T20:14:19.268Z,13.2
2018-11-29T20:16:18.798Z,9.7
2018-11-29T20:18:19.645Z,11.5
2018-11-29T20:20:19.428Z,13.2
2018-11-29T20:22:19.161Z,12.8
2018-11-29T20:24:18.887Z,12.3
2018-11-29T20:26:18.968Z,13.9
2018-11-29T20:28:18.707Z,10.1
2018-11-29T20:30:19.456Z,11.5
2018-11-29T20:32:19.198Z,9.2
2018-11-29T20:34:18.931Z,10.2
2018-11-29T20:36:19.692Z,17.7
2018-11-29T20:38:19.473Z,7
2018-11-29T20:40:18.714Z,9.4
2018-11-29T20:42:19.463Z,7.2
2018-11-29T20:44:19.184Z,10.6
2018-11-29T20:46:19.174Z,10.2
2018-11-29T20:48:18.904Z,13
2018-11-29T20:50:19.668Z,12.4
2018-11-29T20:52:19.430Z,8.9
2018-11-29T20:54:19.175Z,12.9
2018-11-29T20:56:19.515Z,9.9
2018-11-29T20:58:19.276Z,6.3
2018-11-29T21:00:19.030Z,14.2
2018-11-29T21:02:18.743Z,9.6
2018-11-29T21:04:19.525Z,8.9
2018-11-29T21:06:19.019Z,15.3
2018-11-29T21:08:18.784Z,16.6
2018-11-29T21:10:19.119Z,9.5
2018-11-29T21:12:18.864Z,10.8
2018-11-29T21:14:19.600Z,13.6
2018-11-29T21:16:19.132Z,19.9
2018-11-29T21:18:18.962Z,12.2
2018-11-29T21:20:18.692Z,11
2018-11-29T21:22:19.426Z,11.5
2018-11-29T21:24:19.181Z,15
2018-11-29T21:26:19.313Z,13.5
2018-11-29T21:28:19.057Z,13.2
2018-11-29T21:30:18.816Z,12.1
2018-11-29T21:32:19.553Z,11.9
2018-11-29T21:34:19.271Z,16.7
2018-11-29T21:36:18.785Z,21.3
2018-11-29T21:38:19.524Z,11.9
2018-11-29T21:40:18.760Z,9.8
2018-11-29T21:42:19.492Z,11.8
2018-11-29T21:44:19.239Z,12.8
2018-11-29T21:46:18.722Z,14.9
2018-11-29T21:48:19.469Z,14.6
2018-11-29T21:50:19.229Z,18.9
2018-11-29T21:52:18.950Z,9.6
2018-11-29T21:54:18.772Z,16.7
2018-11-29T21:56:19.414Z,11.1
2018-11-29T21:58:19.125Z,15.6
2018-11-29T22:00:18.879Z,16.5
2018-11-29T22:02:19.666Z,16.3
2018-11-29T22:04:19.419Z,18.5
2018-11-29T22:06:18.981Z,15.2
2018-11-29T22:08:18.714Z,13.2
2018-11-29T22:10:18.969Z,13.1
2018-11-29T22:12:18.698Z,16
2018-11-29T22:14:19.455Z,18.9
2018-11-29T22:16:19.567Z,14.3
2018-11-29T22:18:19.400Z,15.8
2018-11-29T22:20:19.150Z,13.7
2018-11-29T22:22:18.916Z,12.4
2018-11-29T22:24:19.670Z,12.6
2018-11-29T22:26:19.298Z,17
2018-11-29T22:28:19.068Z,10.2
2018-11-29T22:30:18.813Z,12.6
2018-11-29T22:32:19.577Z,22.5
2018-11-29T22:34:19.312Z,17.5
2018-11-29T22:36:18.843Z,11.3
2018-11-29T22:38:19.565Z,15.5
2018-11-29T22:40:18.829Z,10
2018-11-29T22:42:19.573Z,9.6
2018-11-29T22:44:19.332Z,15.7
2018-11-29T22:46:19.428Z,16.2
2018-11-29T22:48:19.187Z,11.7
2018-11-29T22:50:19.056Z,14.4
2018-11-29T22:52:18.830Z,13.1
2018-11-29T22:54:19.571Z,14.9
2018-11-29T22:56:19.101Z,15.9
2018-11-29T22:58:18.872Z,23.1
2018-11-29T23:00:19.626Z,12.3
2018-11-29T23:02:19.359Z,16.8
2018-11-29T23:04:19.179Z,20.1
2018-11-29T23:06:19.356Z,11.6
2018-11-29T23:08:19.100Z,11.9
2018-11-29T23:10:19.340Z,14.9
2018-11-29T23:12:18.867Z,13.3
2018-11-29T23:14:19.608Z,13.6
2018-11-29T23:16:19.201Z,16.2
2018-11-29T23:18:19.009Z,17.2
2018-11-29T23:20:18.745Z,17.2
2018-11-29T23:22:19.460Z,17.3
2018-11-29T23:24:19.199Z,12.9
2018-11-29T23:26:18.753Z,17.5
2018-11-29T23:28:19.502Z,15.4
2018-11-29T23:30:19.275Z,13
2018-11-29T23:32:19.041Z,14.4
2018-11-29T23:34:18.784Z,12.5
2018-11-29T23:36:18.889Z,18.8
2018-11-29T23:38:19.685Z,18.3
2018-11-29T23:40:18.974Z,20.1
2018-11-29T23:42:18.735Z,18.7
2018-11-29T23:44:19.465Z,13.8
2018-11-29T23:46:18.723Z,11.8
2018-11-29T23:48:19.458Z,13.3
2018-11-29T23:50:19.214Z,16.8
2018-11-29T23:52:18.949Z,9.2
2018-11-29T23:54:18.685Z,11.9
2018-11-29T23:56:19.622Z,14.1
2018-11-29T23:58:19.363Z,12.8
